createdAt,value
2023-05-19T00:00:30.801Z,100052.28
2023-05-19T00:03:21.822Z,100053.39
2023-05-19T00:05:53.677Z,100053.84
2023-05-19T00:08:24.744Z,100056.71
2023-05-19T00:10:52.964Z,100054.66
2023-05-19T00:13:21.800Z,100056.80
2023-05-19T00:15:51.073Z,100057.71
2023-05-19T00:18:19.202Z,100059.13
2023-05-19T00:20:47.138Z,100059.47
2023-05-19T00:23:15.175Z,100056.08
2023-05-19T00:25:43.188Z,100055.52
2023-05-19T00:28:11.159Z,100055.11
2023-05-19T00:30:39.187Z,100054.67
2023-05-19T00:33:07.211Z,100056.18
2023-05-19T00:35:35.703Z,100055.11
2023-05-19T00:38:03.794Z,100054.38
2023-05-19T00:40:35.262Z,100055.10
2023-05-19T00:43:05.532Z,100051.06
2023-05-19T00:45:34.040Z,100049.48
2023-05-19T00:48:02.135Z,100046.69
2023-05-19T00:50:30.712Z,100048.45
2023-05-19T00:52:59.786Z,100044.15
2023-05-19T00:55:29.452Z,100043.65
2023-05-19T00:57:57.961Z,100044.89
2023-05-19T01:00:25.946Z,100048.98
2023-05-19T01:02:54.363Z,100050.81
2023-05-19T01:05:22.623Z,100052.63
2023-05-19T01:07:55.594Z,100054.75
2023-05-19T01:10:23.723Z,100052.33
2023-05-19T01:12:51.719Z,100049.74
2023-05-19T01:15:20.041Z,100049.29
2023-05-19T01:17:55.042Z,100052.39
2023-05-19T01:20:29.599Z,100054.89
2023-05-19T01:23:06.763Z,100054.92
2023-05-19T01:26:04.669Z,100056.66
2023-05-19T01:28:46.562Z,100057.66
2023-05-19T01:31:17.069Z,100056.24
2023-05-19T01:33:46.573Z,100056.08
2023-05-19T01:36:17.151Z,100056.59
2023-05-19T01:38:46.215Z,100056.51
2023-05-19T01:41:14.417Z,100058.38
2023-05-19T01:43:43.000Z,100059.71
2023-05-19T01:46:12.087Z,100060.58
2023-05-19T01:48:40.988Z,100062.77
2023-05-19T01:51:09.009Z,100064.36
2023-05-19T01:53:37.208Z,100062.92
2023-05-19T01:56:06.468Z,100064.47
2023-05-19T01:58:47.798Z,100067.79
2023-05-19T02:01:24.858Z,100067.80
2023-05-19T02:04:11.266Z,100063.62
2023-05-19T02:06:49.845Z,100063.63
2023-05-19T02:09:34.379Z,100060.30
2023-05-19T02:12:10.958Z,100058.41
2023-05-19T02:14:45.798Z,100059.66
2023-05-19T02:17:16.819Z,100059.54
2023-05-19T02:19:45.269Z,100057.02
2023-05-19T02:22:13.336Z,100055.98
2023-05-19T02:24:41.531Z,100055.55
2023-05-19T02:27:09.518Z,100056.33
2023-05-19T02:29:37.733Z,100060.38
2023-05-19T02:32:07.376Z,100062.27
2023-05-19T02:34:35.821Z,100061.94
2023-05-19T02:37:07.733Z,100058.65
2023-05-19T02:39:35.985Z,100063.08
2023-05-19T02:42:04.273Z,100062.69
2023-05-19T02:44:32.500Z,100064.23
2023-05-19T02:47:00.773Z,100066.13
2023-05-19T02:49:35.862Z,100067.81
2023-05-19T02:52:04.955Z,100067.61
2023-05-19T02:54:34.738Z,100065.98
2023-05-19T02:57:02.849Z,100061.91
2023-05-19T02:59:31.431Z,100060.89
2023-05-19T03:02:01.613Z,100059.45
2023-05-19T03:04:30.187Z,100053.98
2023-05-19T03:06:58.264Z,100055.23
2023-05-19T03:09:26.390Z,100056.08
2023-05-19T03:11:54.422Z,100058.00
2023-05-19T03:14:24.133Z,100056.56
2023-05-19T03:16:52.448Z,100055.67
2023-05-19T03:19:20.863Z,100055.83
2023-05-19T03:21:49.671Z,100050.69
2023-05-19T03:24:18.217Z,100046.38
2023-05-19T03:26:46.481Z,100049.56
2023-05-19T03:29:14.950Z,100049.46
2023-05-19T03:31:43.198Z,100047.44
2023-05-19T03:34:11.403Z,100044.54
2023-05-19T03:36:39.922Z,100048.00
2023-05-19T03:39:11.831Z,100047.38
2023-05-19T03:41:40.347Z,100047.46
2023-05-19T03:44:08.283Z,100049.27
2023-05-19T03:46:36.390Z,100044.91
2023-05-19T03:49:23.298Z,100047.12
2023-05-19T03:52:10.096Z,100046.26
2023-05-19T03:54:53.885Z,100048.05
2023-05-19T03:57:22.570Z,100042.08
2023-05-19T03:59:50.754Z,100042.58
2023-05-19T04:02:18.856Z,100046.38
2023-05-19T04:04:50.753Z,100046.98
2023-05-19T04:07:18.905Z,100047.95
2023-05-19T04:09:48.668Z,100047.54
2023-05-19T04:12:16.731Z,100045.59
2023-05-19T04:14:44.691Z,100042.17
2023-05-19T04:17:12.811Z,100043.83
2023-05-19T04:19:41.104Z,100039.75
2023-05-19T04:22:08.974Z,100048.61
2023-05-19T04:24:37.678Z,100048.39
2023-05-19T04:27:11.914Z,100047.96
2023-05-19T04:29:41.036Z,100044.75
2023-05-19T04:32:10.822Z,100045.48
2023-05-19T04:34:40.856Z,100044.74
2023-05-19T04:37:10.285Z,100047.42
2023-05-19T04:39:40.387Z,100049.73
2023-05-19T04:42:10.072Z,100047.73
2023-05-19T04:44:40.277Z,100052.90
2023-05-19T04:47:09.274Z,100057.00
2023-05-19T04:49:40.842Z,100062.40
2023-05-19T04:52:10.959Z,100062.52
2023-05-19T04:54:40.253Z,100066.02
2023-05-19T04:57:08.559Z,100064.75
2023-05-19T04:59:38.645Z,100066.71
2023-05-19T05:02:08.034Z,100063.48
2023-05-19T05:04:36.482Z,100062.12
2023-05-19T05:07:04.523Z,100064.01
2023-05-19T05:09:32.466Z,100066.52
2023-05-19T05:12:02.194Z,100065.30
2023-05-19T05:14:31.271Z,100061.54
2023-05-19T05:16:59.477Z,100063.92
2023-05-19T05:19:27.800Z,100064.02
2023-05-19T05:21:56.444Z,100064.05
2023-05-19T05:24:24.894Z,100064.13
2023-05-19T05:26:55.755Z,100065.31
2023-05-19T05:29:24.133Z,100064.77
2023-05-19T05:31:52.268Z,100061.09
2023-05-19T05:34:20.344Z,100060.30
2023-05-19T05:36:48.524Z,100058.61
2023-05-19T05:39:19.876Z,100060.91
2023-05-19T05:41:48.025Z,100070.80
2023-05-19T05:44:15.991Z,100068.23
2023-05-19T05:46:45.554Z,100068.77
2023-05-19T05:49:13.874Z,100071.06
2023-05-19T05:51:54.294Z,100072.36
2023-05-19T05:54:32.845Z,100073.27
2023-05-19T05:57:02.667Z,100075.31
2023-05-19T05:59:33.184Z,100074.31
2023-05-19T06:02:01.503Z,100079.04
2023-05-19T06:04:30.212Z,100080.11
2023-05-19T06:07:01.275Z,100081.34
2023-05-19T06:09:32.929Z,100081.55
2023-05-19T06:12:01.689Z,100084.21
2023-05-19T06:14:32.947Z,100083.73
2023-05-19T06:17:30.377Z,100082.67
2023-05-19T06:19:58.593Z,100077.98
2023-05-19T06:22:27.878Z,100077.77
2023-05-19T06:24:56.348Z,100078.75
2023-05-19T06:27:24.392Z,100077.80
2023-05-19T06:29:53.089Z,100079.77
2023-05-19T06:32:21.322Z,100080.23
2023-05-19T06:34:54.662Z,100084.53
2023-05-19T06:37:24.536Z,100085.67
2023-05-19T06:39:54.569Z,100086.90
2023-05-19T06:42:23.107Z,100087.34
2023-05-19T06:44:58.060Z,100086.10
2023-05-19T06:47:27.771Z,100088.55
2023-05-19T06:49:55.999Z,100085.84
2023-05-19T06:52:26.802Z,100086.63
2023-05-19T06:54:55.458Z,100089.14
2023-05-19T06:57:23.786Z,100093.40
2023-05-19T06:59:52.544Z,100096.98
2023-05-19T07:02:20.899Z,100096.00
2023-05-19T07:04:49.130Z,100093.36
2023-05-19T07:07:17.434Z,100092.36
2023-05-19T07:09:45.942Z,100095.29
2023-05-19T07:12:14.273Z,100092.77
2023-05-19T07:14:42.434Z,100093.17
2023-05-19T07:17:11.200Z,100094.11
2023-05-19T07:19:41.429Z,100095.55
2023-05-19T07:22:09.772Z,100092.20
2023-05-19T07:24:37.793Z,100091.94
2023-05-19T07:27:05.816Z,100087.66
2023-05-19T07:29:33.830Z,100089.48
2023-05-19T07:32:01.850Z,100085.80
2023-05-19T07:34:29.938Z,100087.13
2023-05-19T07:36:57.981Z,100085.20
2023-05-19T07:39:29.562Z,100087.52
2023-05-19T07:41:57.673Z,100085.32
2023-05-19T07:44:27.168Z,100087.23
2023-05-19T07:46:55.261Z,100089.67
2023-05-19T07:49:23.435Z,100088.84
2023-05-19T07:51:51.896Z,100090.89
2023-05-19T07:54:21.355Z,100092.34
2023-05-19T07:56:49.494Z,100091.31
2023-05-19T07:59:17.421Z,100095.27
2023-05-19T08:01:45.725Z,100100.53
2023-05-19T08:04:14.198Z,100100.96
2023-05-19T08:06:44.388Z,100103.30
2023-05-19T08:09:12.483Z,100105.50
2023-05-19T08:11:40.564Z,100105.42
2023-05-19T08:14:08.586Z,100107.77
2023-05-19T08:16:36.595Z,100102.63
2023-05-19T08:19:06.861Z,100102.19
2023-05-19T08:21:35.631Z,100100.09
2023-05-19T08:24:04.383Z,100097.40
2023-05-19T08:26:32.333Z,100098.09
2023-05-19T08:29:00.361Z,100099.80
2023-05-19T08:31:28.362Z,100100.05
2023-05-19T08:33:56.640Z,100100.06
2023-05-19T08:36:24.953Z,100098.69
2023-05-19T08:38:52.927Z,100097.85
2023-05-19T08:41:22.886Z,100099.90
2023-05-19T08:43:50.970Z,100095.59
2023-05-19T08:46:21.903Z,100096.47
2023-05-19T08:48:54.878Z,100093.08
2023-05-19T08:51:57.534Z,100091.01
2023-05-19T08:54:33.730Z,100091.56
2023-05-19T08:57:02.316Z,100092.27
2023-05-19T08:59:30.818Z,100091.90
2023-05-19T09:01:59.333Z,100091.80
2023-05-19T09:04:29.980Z,100095.58
2023-05-19T09:07:02.651Z,100096.67
2023-05-19T09:09:30.805Z,100097.76
2023-05-19T09:11:58.897Z,100099.05
2023-05-19T09:14:26.917Z,100097.45
2023-05-19T09:16:55.236Z,100097.84
2023-05-19T09:19:23.434Z,100097.05
2023-05-19T09:22:01.402Z,100095.99
2023-05-19T09:24:29.705Z,100091.64
2023-05-19T09:27:00.015Z,100088.63
2023-05-19T09:29:28.370Z,100081.26
2023-05-19T09:32:06.117Z,100079.98
2023-05-19T09:34:34.358Z,100076.89
2023-05-19T09:37:02.337Z,100072.98
2023-05-19T09:39:30.489Z,100076.06
2023-05-19T09:41:58.827Z,100079.60
2023-05-19T09:44:30.705Z,100081.29
2023-05-19T09:46:59.827Z,100077.71
2023-05-19T09:49:30.335Z,100070.36
2023-05-19T09:52:00.126Z,100072.65
2023-05-19T09:54:29.819Z,100069.75
2023-05-19T09:57:03.646Z,100073.02
2023-05-19T09:59:33.673Z,100071.67
2023-05-19T10:02:02.924Z,100071.96
2023-05-19T10:04:31.878Z,100076.97
2023-05-19T10:07:05.550Z,100074.10
2023-05-19T10:09:36.374Z,100063.45
2023-05-19T10:12:05.608Z,100061.06
2023-05-19T10:14:33.579Z,100065.52
2023-05-19T10:17:01.668Z,100067.38
2023-05-19T10:19:30.022Z,100065.06
2023-05-19T10:21:58.198Z,100062.92
2023-05-19T10:24:26.725Z,100061.33
2023-05-19T10:27:04.007Z,100059.71
2023-05-19T10:29:36.576Z,100059.96
2023-05-19T10:32:12.039Z,100063.89
2023-05-19T10:35:08.174Z,100062.03
2023-05-19T10:37:58.933Z,100063.45
2023-05-19T10:40:29.630Z,100060.91
2023-05-19T10:43:08.895Z,100064.31
2023-05-19T10:45:46.012Z,100065.25
2023-05-19T10:48:16.083Z,100067.23
2023-05-19T10:50:46.742Z,100066.16
2023-05-19T10:53:18.591Z,100066.57
2023-05-19T10:56:00.138Z,100064.58
2023-05-19T10:58:36.985Z,100057.88
2023-05-19T11:01:15.813Z,100054.45
2023-05-19T11:03:53.927Z,100054.46
2023-05-19T11:06:33.074Z,100051.70
2023-05-19T11:09:10.362Z,100052.97
2023-05-19T11:11:49.929Z,100055.19
2023-05-19T11:14:21.087Z,100053.52
2023-05-19T11:16:59.389Z,100056.39
2023-05-19T11:19:29.469Z,100055.14
2023-05-19T11:22:08.943Z,100049.59
2023-05-19T11:24:42.845Z,100050.52
2023-05-19T11:27:33.455Z,100048.41
2023-05-19T11:30:20.190Z,100046.32
2023-05-19T11:32:48.540Z,100044.64
2023-05-19T11:35:19.122Z,100044.58
2023-05-19T11:37:49.096Z,100042.80
2023-05-19T11:40:18.023Z,100041.00
2023-05-19T11:42:46.174Z,100043.54
2023-05-19T11:45:14.339Z,100040.54
2023-05-19T11:48:00.853Z,100036.95
2023-05-19T11:50:31.369Z,100035.84
2023-05-19T11:53:01.051Z,100036.74
2023-05-19T11:55:29.692Z,100040.23
2023-05-19T11:58:04.690Z,100042.15
2023-05-19T12:00:39.979Z,100041.61
2023-05-19T12:03:09.687Z,100042.23
2023-05-19T12:05:43.541Z,100047.84
2023-05-19T12:08:12.814Z,100048.68
2023-05-19T12:10:41.141Z,100047.49
2023-05-19T12:13:10.181Z,100046.39
2023-05-19T12:15:39.157Z,100044.91
2023-05-19T12:18:07.683Z,100045.38
2023-05-19T12:20:36.426Z,100048.59
2023-05-19T12:23:05.220Z,100051.67
2023-05-19T12:25:33.602Z,100052.05
2023-05-19T12:28:05.445Z,100054.05
2023-05-19T12:30:34.725Z,100054.45
2023-05-19T12:33:03.602Z,100053.88
2023-05-19T12:35:34.056Z,100050.60
2023-05-19T12:38:06.648Z,100050.45
2023-05-19T12:40:36.306Z,100049.04
2023-05-19T12:43:05.621Z,100050.52
2023-05-19T12:45:38.327Z,100048.27
2023-05-19T12:48:11.774Z,100044.63
2023-05-19T12:50:40.023Z,100041.73
2023-05-19T12:53:15.179Z,100047.95
2023-05-19T12:55:45.517Z,100047.64
2023-05-19T12:58:15.782Z,100049.80
2023-05-19T13:00:47.496Z,100047.17
2023-05-19T13:03:15.956Z,100048.54
2023-05-19T13:05:48.200Z,100049.30
2023-05-19T13:08:21.706Z,100049.48
2023-05-19T13:10:50.153Z,100045.23
2023-05-19T13:13:18.670Z,100040.44
2023-05-19T13:15:50.910Z,100043.30
2023-05-19T13:18:19.180Z,100044.84
2023-05-19T13:20:49.214Z,100038.54
2023-05-19T13:23:17.370Z,100042.30
2023-05-19T13:25:45.539Z,100046.80
2023-05-19T13:28:13.474Z,100042.55
2023-05-19T13:30:43.455Z,100040.93
2023-05-19T13:33:12.030Z,100040.85
2023-05-19T13:35:40.226Z,100037.28
2023-05-19T13:38:10.299Z,100038.33
2023-05-19T13:40:40.269Z,100039.25
2023-05-19T13:45:56.791Z,100037.55
2023-05-19T13:48:25.017Z,100038.55
2023-05-19T13:50:55.702Z,100039.05
2023-05-19T13:51:32.962Z,100038.21
2023-05-19T13:53:23.645Z,100039.88
2023-05-19T13:55:53.045Z,100036.77
2023-05-19T13:58:21.126Z,100038.30
2023-05-19T14:00:51.128Z,100037.58
2023-05-19T14:03:19.915Z,100039.72
2023-05-19T14:05:50.812Z,100039.12
2023-05-19T14:08:19.124Z,100036.87
2023-05-19T14:10:47.471Z,100035.04
2023-05-19T14:13:31.424Z,100035.72
2023-05-19T14:16:02.363Z,100034.96
2023-05-19T14:18:31.035Z,100033.29
2023-05-19T14:20:59.021Z,100031.70
2023-05-19T14:23:27.931Z,100027.02
2023-05-19T14:25:56.531Z,100026.61
2023-05-19T14:28:24.578Z,100026.77
2023-05-19T14:30:52.714Z,100027.14
2023-05-19T14:33:21.334Z,100030.63
2023-05-19T14:35:49.285Z,100031.02
2023-05-19T14:38:17.275Z,100034.08
2023-05-19T14:40:45.667Z,100030.41
2023-05-19T14:43:13.969Z,100023.27
2023-05-19T14:45:42.177Z,100026.17
2023-05-19T14:48:13.527Z,100026.57
2023-05-19T14:50:41.703Z,100029.33
2023-05-19T14:53:09.830Z,100032.59
2023-05-19T14:55:37.823Z,100031.87
2023-05-19T14:58:15.848Z,100033.54
2023-05-19T15:00:48.262Z,100032.41
2023-05-19T15:03:16.415Z,100033.39
2023-05-19T15:05:45.450Z,100030.33
2023-05-19T15:08:13.455Z,100028.61
2023-05-19T15:10:41.460Z,100029.37
2023-05-19T15:13:09.383Z,100018.87
2023-05-19T15:15:37.365Z,100017.47
2023-05-19T15:18:05.321Z,100016.87
2023-05-19T15:20:33.555Z,100018.87
2023-05-19T15:23:01.802Z,100022.30
2023-05-19T15:25:30.081Z,100021.80
2023-05-19T15:27:58.030Z,100024.84
2023-05-19T15:30:26.119Z,100026.74
2023-05-19T15:32:54.221Z,100024.52
2023-05-19T15:35:22.278Z,100029.95
2023-05-19T15:37:50.291Z,100027.95
2023-05-19T15:40:18.381Z,100024.64
2023-05-19T15:42:46.299Z,100024.21
2023-05-19T15:45:14.296Z,100024.58
2023-05-19T15:47:42.368Z,100021.79
2023-05-19T15:50:10.558Z,100018.03
2023-05-19T15:52:38.489Z,100014.38
2023-05-19T15:55:07.098Z,100017.61
2023-05-19T15:57:35.339Z,100017.02
2023-05-19T16:00:03.799Z,100013.74
2023-05-19T16:02:33.722Z,100011.38
2023-05-19T16:05:01.890Z,100010.86
2023-05-19T16:07:29.922Z,100009.43
2023-05-19T16:09:58.065Z,100014.83
2023-05-19T16:12:27.525Z,100012.38
2023-05-19T16:14:55.632Z,100011.69
2023-05-19T16:17:23.634Z,100012.70
2023-05-19T16:19:51.626Z,100013.89
2023-05-19T16:22:20.091Z,100011.05
2023-05-19T16:24:48.819Z,100010.19
2023-05-19T16:27:16.962Z,100010.16
2023-05-19T16:29:44.963Z,100004.00
2023-05-19T16:32:13.105Z,100000.11
2023-05-19T16:34:41.238Z,99995.50
2023-05-19T16:37:09.277Z,100000.52
2023-05-19T16:39:37.409Z,100002.41
2023-05-19T16:42:05.530Z,99999.51
2023-05-19T16:44:33.586Z,99998.24
2023-05-19T16:47:01.643Z,99995.02
2023-05-19T16:49:29.737Z,99994.64
2023-05-19T16:51:57.686Z,99997.98
2023-05-19T16:54:25.934Z,99998.69
2023-05-19T16:56:53.929Z,99998.95
2023-05-19T16:59:21.919Z,99996.23
2023-05-19T17:01:50.202Z,99999.77
2023-05-19T17:04:18.322Z,100001.33
2023-05-19T17:06:46.492Z,100003.93
2023-05-19T17:09:14.484Z,100004.74
2023-05-19T17:11:42.486Z,100005.42
2023-05-19T17:14:10.568Z,100004.59
2023-05-19T17:16:38.545Z,100005.81
2023-05-19T17:19:06.612Z,100008.25
2023-05-19T17:21:34.935Z,100004.34
2023-05-19T17:24:03.372Z,100006.55
2023-05-19T17:26:31.372Z,100004.94
2023-05-19T17:28:59.390Z,100004.62
2023-05-19T17:31:27.655Z,100009.46
2023-05-19T17:33:57.844Z,100008.10
2023-05-19T17:36:26.460Z,100005.71
2023-05-19T17:38:54.626Z,100011.11
2023-05-19T17:41:22.796Z,100015.61
2023-05-19T17:43:50.793Z,100016.98
2023-05-19T17:46:18.795Z,100018.83
2023-05-19T17:48:46.726Z,100019.98
2023-05-19T17:51:14.685Z,100021.61
2023-05-19T17:53:43.083Z,100022.89
2023-05-19T17:56:12.550Z,100026.52
2023-05-19T17:58:41.386Z,100024.20
2023-05-19T18:01:10.957Z,100020.46
2023-05-19T18:03:39.487Z,100017.02
2023-05-19T18:06:08.094Z,100018.83
2023-05-19T18:08:37.694Z,100019.73
2023-05-19T18:11:06.060Z,100019.13
2023-05-19T18:13:34.097Z,100017.44
2023-05-19T18:16:02.410Z,100014.26
2023-05-19T18:18:30.476Z,100014.09
2023-05-19T18:20:58.406Z,100012.23
2023-05-19T18:23:26.635Z,100013.45
2023-05-19T18:25:54.699Z,100013.78
2023-05-19T18:28:23.804Z,100016.48
2023-05-19T18:31:03.700Z,100018.54
2023-05-19T18:33:32.367Z,100015.46
2023-05-19T18:36:00.506Z,100016.10
2023-05-19T18:38:28.558Z,100019.05
2023-05-19T18:40:56.890Z,100022.58
2023-05-19T18:43:25.038Z,100019.48
2023-05-19T18:45:53.027Z,100021.45
2023-05-19T18:48:22.567Z,100022.88
2023-05-19T18:50:50.708Z,100022.67
2023-05-19T18:53:18.757Z,100025.77
2023-05-19T18:55:46.852Z,100022.55
2023-05-19T18:58:14.984Z,100023.31
2023-05-19T19:00:43.087Z,100021.95
2023-05-19T19:03:11.934Z,100020.83
2023-05-19T19:05:40.521Z,100025.38
2023-05-19T19:08:08.666Z,100030.24
2023-05-19T19:10:39.199Z,100032.52
2023-05-19T19:13:07.440Z,100036.16
2023-05-19T19:15:36.182Z,100038.39
2023-05-19T19:18:05.545Z,100041.24
2023-05-19T19:20:35.062Z,100047.02
2023-05-19T19:23:06.530Z,100047.63
2023-05-19T19:25:35.070Z,100049.29
2023-05-19T19:28:03.643Z,100047.98
2023-05-19T19:30:32.001Z,100047.91
2023-05-19T19:33:00.384Z,100047.20
2023-05-19T19:35:28.979Z,100048.02
2023-05-19T19:38:04.370Z,100044.91
2023-05-19T19:40:32.904Z,100044.28
2023-05-19T19:43:01.261Z,100041.68
2023-05-19T19:45:29.340Z,100037.38
2023-05-19T19:47:57.285Z,100037.59
2023-05-19T19:50:25.958Z,100040.13
2023-05-19T19:52:54.416Z,100037.73
2023-05-19T19:55:22.816Z,100037.80
2023-05-19T19:57:51.330Z,100040.48
2023-05-19T20:00:19.397Z,100045.73
2023-05-19T20:03:03.778Z,100047.96
2023-05-19T20:05:33.066Z,100051.84
2023-05-19T20:08:04.237Z,100053.02
2023-05-19T20:10:32.382Z,100050.66
2023-05-19T20:13:00.687Z,100050.40
2023-05-19T20:15:28.595Z,100054.19
2023-05-19T20:17:56.601Z,100052.33
2023-05-19T20:20:26.359Z,100049.95
2023-05-19T20:22:54.347Z,100050.02
2023-05-19T20:25:22.387Z,100053.98
2023-05-19T20:27:50.453Z,100058.01
2023-05-19T20:30:18.467Z,100057.69
2023-05-19T20:32:46.836Z,100057.50
2023-05-19T20:35:17.527Z,100055.85
2023-05-19T20:37:45.515Z,100050.61
2023-05-19T20:40:13.757Z,100047.92
2023-05-19T20:42:41.922Z,100045.75
2023-05-19T20:45:10.133Z,100041.42
2023-05-19T20:47:38.758Z,100041.24
2023-05-19T20:50:07.207Z,100043.34
2023-05-19T20:52:35.289Z,100043.19
2023-05-19T20:55:03.480Z,100040.66
2023-05-19T20:57:31.712Z,100036.67
2023-05-19T21:00:01.078Z,100036.93
2023-05-19T21:02:29.071Z,100037.55
2023-05-19T21:04:57.205Z,100036.02
2023-05-19T21:07:25.475Z,100032.67
2023-05-19T21:09:54.396Z,100036.44
2023-05-19T21:12:28.590Z,100032.34
2023-05-19T21:14:56.579Z,100031.70
2023-05-19T21:17:24.782Z,100033.31
2023-05-19T21:19:57.731Z,100032.35
2023-05-19T21:22:26.767Z,100031.80
2023-05-19T21:24:55.250Z,100033.35
2023-05-19T21:27:23.496Z,100036.84
2023-05-19T21:29:53.552Z,100037.23
2023-05-19T21:32:22.023Z,100037.45
2023-05-19T21:34:50.234Z,100034.42
2023-05-19T21:37:18.280Z,100033.91
2023-05-19T21:39:46.437Z,100032.70
2023-05-19T21:42:14.360Z,100036.23
2023-05-19T21:44:42.273Z,100034.17
2023-05-19T21:47:10.502Z,100031.20
2023-05-19T21:49:40.736Z,100033.73
2023-05-19T21:52:08.857Z,100032.20
2023-05-19T21:54:36.832Z,100033.63
2023-05-19T21:57:04.981Z,100034.88
2023-05-19T21:59:32.999Z,100035.37
2023-05-19T22:02:00.990Z,100035.59
2023-05-19T22:04:31.546Z,100035.45
2023-05-19T22:07:01.050Z,100032.00
2023-05-19T22:09:29.456Z,100031.75
2023-05-19T22:11:57.451Z,100028.86
2023-05-19T22:14:25.441Z,100019.77
2023-05-19T22:16:53.504Z,100019.11
2023-05-19T22:19:21.555Z,100018.97
2023-05-19T22:21:53.685Z,100015.00
2023-05-19T22:24:26.613Z,100012.92
2023-05-19T22:26:54.594Z,100006.73
2023-05-19T22:29:22.551Z,100008.46
2023-05-19T22:31:50.520Z,100006.48
2023-05-19T22:34:18.753Z,100004.09
2023-05-19T22:36:46.842Z,100003.42
2023-05-19T22:39:14.952Z,100001.44
2023-05-19T22:41:42.989Z,100001.02
2023-05-19T22:44:13.069Z,100002.43
2023-05-19T22:46:41.039Z,100002.52
2023-05-19T22:49:08.952Z,100001.61
2023-05-19T22:51:36.892Z,100001.68
2023-05-19T22:54:05.112Z,100002.42
2023-05-19T22:56:33.244Z,99998.98
2023-05-19T22:59:01.536Z,99996.52
2023-05-19T23:01:29.581Z,99996.59
2023-05-19T23:03:57.585Z,99999.99
2023-05-19T23:06:25.726Z,99999.02
2023-05-19T23:09:03.868Z,100000.43
2023-05-19T23:11:31.748Z,99998.08
2023-05-19T23:13:59.712Z,99995.33
2023-05-19T23:16:27.837Z,99990.80
2023-05-19T23:18:55.940Z,99989.35
2023-05-19T23:21:24.044Z,99989.73
2023-05-19T23:23:52.103Z,99989.73
2023-05-19T23:26:20.164Z,99987.23
2023-05-19T23:28:48.122Z,99987.38
2023-05-19T23:31:16.161Z,99987.52
2023-05-19T23:33:44.147Z,99983.66
2023-05-19T23:36:12.210Z,99985.98
2023-05-19T23:38:40.129Z,99985.39
2023-05-19T23:41:08.242Z,99981.83
2023-05-19T23:43:36.263Z,99977.14
2023-05-19T23:46:04.320Z,99973.90
2023-05-19T23:48:33.647Z,99972.60
2023-05-19T23:51:01.574Z,99966.33
2023-05-19T23:53:29.468Z,99967.02
2023-05-19T23:55:58.700Z,99963.95
2023-05-19T23:58:26.792Z,99967.58
